sensor_id;sensor_type;location;lat;lon;timestamp;P1;durP1;ratioP1;P2;durP2;ratioP2
16115;SDS011;8162;47.104;15.432;2022-08-21T00:01:59;1.10;;;1.00;;
16115;SDS011;8162;47.104;15.432;2022-08-21T00:04:25;1.33;;;1.00;;
16115;SDS011;8162;47.104;15.432;2022-08-21T00:06:51;1.00;;;0.90;;
16115;SDS011;8162;47.104;15.432;2022-08-21T00:09:17;1.40;;;1.30;;
16115;SDS011;8162;47.104;15.432;2022-08-21T00:11:44;1.10;;;1.00;;
16115;SDS011;8162;47.104;15.432;2022-08-21T00:14:10;2.13;;;1.30;;
16115;SDS011;8162;47.104;15.432;2022-08-21T00:16:36;1.23;;;1.13;;
16115;SDS011;8162;47.104;15.432;2022-08-21T00:19:03;2.13;;;1.10;;
16115;SDS011;8162;47.104;15.432;2022-08-21T00:21:31;1.23;;;1.13;;
16115;SDS011;8162;47.104;15.432;2022-08-21T00:23:57;2.70;;;1.20;;
16115;SDS011;8162;47.104;15.432;2022-08-21T00:26:23;1.53;;;1.13;;
16115;SDS011;8162;47.104;15.432;2022-08-21T00:28:49;1.70;;;1.20;;
16115;SDS011;8162;47.104;15.432;2022-08-21T00:31:15;1.17;;;1.07;;
16115;SDS011;8162;47.104;15.432;2022-08-21T00:33:41;1.47;;;1.07;;
16115;SDS011;8162;47.104;15.432;2022-08-21T00:36:07;0.90;;;0.90;;
16115;SDS011;8162;47.104;15.432;2022-08-21T00:38:33;1.20;;;1.10;;
16115;SDS011;8162;47.104;15.432;2022-08-21T00:41:00;1.03;;;1.03;;
16115;SDS011;8162;47.104;15.432;2022-08-21T00:43:29;1.23;;;1.10;;
16115;SDS011;8162;47.104;15.432;2022-08-21T00:45:57;2.67;;;1.30;;
16115;SDS011;8162;47.104;15.432;2022-08-21T00:48:24;1.20;;;1.10;;
16115;SDS011;8162;47.104;15.432;2022-08-21T00:50:52;2.10;;;1.20;;
16115;SDS011;8162;47.104;15.432;2022-08-21T00:53:30;1.37;;;1.27;;
16115;SDS011;8162;47.104;15.432;2022-08-21T00:55:57;1.37;;;1.27;;
16115;SDS011;8162;47.104;15.432;2022-08-21T00:58:24;1.50;;;1.40;;
16115;SDS011;8162;47.104;15.432;2022-08-21T01:00:52;1.47;;;1.20;;
16115;SDS011;8162;47.104;15.432;2022-08-21T01:03:19;1.43;;;1.00;;
16115;SDS011;8162;47.104;15.432;2022-08-21T01:05:47;0.77;;;0.77;;
16115;SDS011;8162;47.104;15.432;2022-08-21T01:08:13;1.37;;;1.27;;
16115;SDS011;8162;47.104;15.432;2022-08-21T01:10:41;1.30;;;1.20;;
16115;SDS011;8162;47.104;15.432;2022-08-21T01:13:07;1.23;;;0.90;;
16115;SDS011;8162;47.104;15.432;2022-08-21T01:15:36;2.87;;;1.33;;
16115;SDS011;8162;47.104;15.432;2022-08-21T01:18:04;1.10;;;1.00;;
16115;SDS011;8162;47.104;15.432;2022-08-21T01:20:32;1.03;;;0.93;;
16115;SDS011;8162;47.104;15.432;2022-08-21T01:23:00;1.20;;;1.10;;
16115;SDS011;8162;47.104;15.432;2022-08-21T01:25:27;1.20;;;0.80;;
16115;SDS011;8162;47.104;15.432;2022-08-21T01:27:53;1.70;;;1.60;;
16115;SDS011;8162;47.104;15.432;2022-08-21T01:30:22;2.27;;;1.37;;
16115;SDS011;8162;47.104;15.432;2022-08-21T01:32:51;1.00;;;0.90;;
16115;SDS011;8162;47.104;15.432;2022-08-21T01:35:19;1.50;;;1.33;;
16115;SDS011;8162;47.104;15.432;2022-08-21T01:37:45;1.03;;;0.90;;
16115;SDS011;8162;47.104;15.432;2022-08-21T01:40:13;2.40;;;1.27;;
16115;SDS011;8162;47.104;15.432;2022-08-21T01:42:42;1.20;;;1.10;;
16115;SDS011;8162;47.104;15.432;2022-08-21T01:45:09;1.30;;;1.20;;
16115;SDS011;8162;47.104;15.432;2022-08-21T01:47:36;1.00;;;1.00;;
16115;SDS011;8162;47.104;15.432;2022-08-21T01:50:03;1.27;;;1.17;;
16115;SDS011;8162;47.104;15.432;2022-08-21T01:52:31;1.40;;;1.30;;
16115;SDS011;8162;47.104;15.432;2022-08-21T01:54:57;1.77;;;1.20;;
16115;SDS011;8162;47.104;15.432;2022-08-21T01:57:23;1.17;;;1.03;;
16115;SDS011;8162;47.104;15.432;2022-08-21T01:59:50;1.30;;;1.17;;
16115;SDS011;8162;47.104;15.432;2022-08-21T02:02:15;1.60;;;1.30;;
16115;SDS011;8162;47.104;15.432;2022-08-21T02:04:41;1.00;;;0.97;;
16115;SDS011;8162;47.104;15.432;2022-08-21T02:07:07;2.10;;;1.13;;
16115;SDS011;8162;47.104;15.432;2022-08-21T02:09:32;1.20;;;1.10;;
16115;SDS011;8162;47.104;15.432;2022-08-21T02:11:58;1.30;;;1.20;;
16115;SDS011;8162;47.104;15.432;2022-08-21T02:14:24;1.07;;;0.97;;
16115;SDS011;8162;47.104;15.432;2022-08-21T02:16:50;1.67;;;1.30;;
16115;SDS011;8162;47.104;15.432;2022-08-21T02:19:16;1.40;;;1.30;;
16115;SDS011;8162;47.104;15.432;2022-08-21T02:21:42;2.20;;;1.50;;
16115;SDS011;8162;47.104;15.432;2022-08-21T02:24:09;1.47;;;1.30;;
16115;SDS011;8162;47.104;15.432;2022-08-21T02:26:35;1.40;;;1.30;;
16115;SDS011;8162;47.104;15.432;2022-08-21T02:29:01;1.40;;;1.30;;
16115;SDS011;8162;47.104;15.432;2022-08-21T02:31:28;1.70;;;1.60;;
16115;SDS011;8162;47.104;15.432;2022-08-21T02:33:54;2.57;;;1.33;;
16115;SDS011;8162;47.104;15.432;2022-08-21T02:36:20;1.33;;;1.10;;
16115;SDS011;8162;47.104;15.432;2022-08-21T02:38:46;1.70;;;1.60;;
16115;SDS011;8162;47.104;15.432;2022-08-21T02:41:16;1.37;;;1.27;;
16115;SDS011;8162;47.104;15.432;2022-08-21T02:43:43;1.30;;;1.20;;
16115;SDS011;8162;47.104;15.432;2022-08-21T02:46:10;1.90;;;1.43;;
16115;SDS011;8162;47.104;15.432;2022-08-21T02:48:38;1.07;;;1.07;;
16115;SDS011;8162;47.104;15.432;2022-08-21T02:51:06;1.30;;;1.20;;
16115;SDS011;8162;47.104;15.432;2022-08-21T02:53:41;2.40;;;1.20;;
16115;SDS011;8162;47.104;15.432;2022-08-21T02:56:08;1.90;;;1.57;;
16115;SDS011;8162;47.104;15.432;2022-08-21T02:58:39;1.53;;;1.40;;
16115;SDS011;8162;47.104;15.432;2022-08-21T03:01:11;1.40;;;1.30;;
16115;SDS011;8162;47.104;15.432;2022-08-21T03:03:38;1.57;;;1.47;;
16115;SDS011;8162;47.104;15.432;2022-08-21T03:06:06;1.47;;;1.37;;
16115;SDS011;8162;47.104;15.432;2022-08-21T03:08:33;1.50;;;1.00;;
16115;SDS011;8162;47.104;15.432;2022-08-21T03:10:59;1.30;;;1.20;;
16115;SDS011;8162;47.104;15.432;2022-08-21T03:13:26;1.40;;;1.30;;
16115;SDS011;8162;47.104;15.432;2022-08-21T03:15:52;1.53;;;1.43;;
16115;SDS011;8162;47.104;15.432;2022-08-21T03:18:19;1.50;;;1.30;;
16115;SDS011;8162;47.104;15.432;2022-08-21T03:20:45;1.30;;;1.20;;
16115;SDS011;8162;47.104;15.432;2022-08-21T03:23:11;1.50;;;1.40;;
16115;SDS011;8162;47.104;15.432;2022-08-21T03:25:38;1.43;;;1.20;;
16115;SDS011;8162;47.104;15.432;2022-08-21T03:28:05;1.40;;;1.20;;
16115;SDS011;8162;47.104;15.432;2022-08-21T03:30:43;1.40;;;1.30;;
16115;SDS011;8162;47.104;15.432;2022-08-21T03:33:09;2.13;;;1.40;;
16115;SDS011;8162;47.104;15.432;2022-08-21T03:35:35;1.50;;;1.40;;
16115;SDS011;8162;47.104;15.432;2022-08-21T03:38:01;2.03;;;1.50;;
16115;SDS011;8162;47.104;15.432;2022-08-21T03:40:28;1.63;;;1.53;;
16115;SDS011;8162;47.104;15.432;2022-08-21T03:42:54;1.50;;;1.20;;
16115;SDS011;8162;47.104;15.432;2022-08-21T03:45:19;1.40;;;1.30;;
16115;SDS011;8162;47.104;15.432;2022-08-21T03:50:23;1.30;;;1.20;;
16115;SDS011;8162;47.104;15.432;2022-08-21T03:52:53;1.37;;;1.27;;
16115;SDS011;8162;47.104;15.432;2022-08-21T03:55:18;1.50;;;1.40;;
16115;SDS011;8162;47.104;15.432;2022-08-21T03:57:44;1.87;;;1.47;;
16115;SDS011;8162;47.104;15.432;2022-08-21T04:00:10;1.77;;;1.63;;
16115;SDS011;8162;47.104;15.432;2022-08-21T04:02:38;1.73;;;1.27;;
16115;SDS011;8162;47.104;15.432;2022-08-21T04:05:05;1.30;;;1.20;;
16115;SDS011;8162;47.104;15.432;2022-08-21T04:07:31;1.50;;;1.40;;
16115;SDS011;8162;47.104;15.432;2022-08-21T04:09:57;1.60;;;1.50;;
16115;SDS011;8162;47.104;15.432;2022-08-21T04:12:23;1.57;;;1.27;;
16115;SDS011;8162;47.104;15.432;2022-08-21T04:14:48;1.17;;;1.03;;
16115;SDS011;8162;47.104;15.432;2022-08-21T04:17:16;1.50;;;1.40;;
16115;SDS011;8162;47.104;15.432;2022-08-21T04:19:42;1.40;;;1.30;;
16115;SDS011;8162;47.104;15.432;2022-08-21T04:22:08;1.30;;;1.10;;
16115;SDS011;8162;47.104;15.432;2022-08-21T04:24:34;1.73;;;1.63;;
16115;SDS011;8162;47.104;15.432;2022-08-21T04:26:59;1.60;;;1.50;;
16115;SDS011;8162;47.104;15.432;2022-08-21T04:29:25;1.20;;;1.10;;
16115;SDS011;8162;47.104;15.432;2022-08-21T04:31:51;1.37;;;1.27;;
16115;SDS011;8162;47.104;15.432;2022-08-21T04:34:17;2.07;;;1.63;;
16115;SDS011;8162;47.104;15.432;2022-08-21T04:36:43;1.50;;;1.40;;
16115;SDS011;8162;47.104;15.432;2022-08-21T04:39:09;1.50;;;1.40;;
16115;SDS011;8162;47.104;15.432;2022-08-21T04:41:35;1.30;;;1.20;;
16115;SDS011;8162;47.104;15.432;2022-08-21T04:44:01;1.53;;;1.30;;
16115;SDS011;8162;47.104;15.432;2022-08-21T04:46:27;1.37;;;1.23;;
16115;SDS011;8162;47.104;15.432;2022-08-21T04:48:53;3.00;;;1.27;;
16115;SDS011;8162;47.104;15.432;2022-08-21T04:51:21;1.37;;;1.27;;
16115;SDS011;8162;47.104;15.432;2022-08-21T04:54:09;1.53;;;1.43;;
16115;SDS011;8162;47.104;15.432;2022-08-21T04:56:40;1.40;;;1.30;;
16115;SDS011;8162;47.104;15.432;2022-08-21T04:59:11;1.70;;;1.60;;
16115;SDS011;8162;47.104;15.432;2022-08-21T05:01:42;1.30;;;1.20;;
16115;SDS011;8162;47.104;15.432;2022-08-21T05:04:10;1.60;;;1.50;;
16115;SDS011;8162;47.104;15.432;2022-08-21T05:06:39;1.37;;;1.27;;
16115;SDS011;8162;47.104;15.432;2022-08-21T05:09:08;1.50;;;1.30;;
16115;SDS011;8162;47.104;15.432;2022-08-21T05:11:35;2.00;;;1.10;;
16115;SDS011;8162;47.104;15.432;2022-08-21T05:14:02;1.60;;;1.37;;
16115;SDS011;8162;47.104;15.432;2022-08-21T05:16:27;1.33;;;1.23;;
16115;SDS011;8162;47.104;15.432;2022-08-21T05:18:53;1.20;;;1.10;;
16115;SDS011;8162;47.104;15.432;2022-08-21T05:21:19;1.50;;;1.10;;
16115;SDS011;8162;47.104;15.432;2022-08-21T05:23:45;1.50;;;1.40;;
16115;SDS011;8162;47.104;15.432;2022-08-21T05:26:11;1.27;;;1.17;;
16115;SDS011;8162;47.104;15.432;2022-08-21T05:28:37;1.50;;;1.40;;
16115;SDS011;8162;47.104;15.432;2022-08-21T05:31:03;1.70;;;1.40;;
16115;SDS011;8162;47.104;15.432;2022-08-21T05:33:29;1.37;;;1.10;;
16115;SDS011;8162;47.104;15.432;2022-08-21T05:35:54;1.23;;;1.13;;
16115;SDS011;8162;47.104;15.432;2022-08-21T05:38:21;1.50;;;1.40;;
16115;SDS011;8162;47.104;15.432;2022-08-21T05:40:52;1.40;;;1.30;;
16115;SDS011;8162;47.104;15.432;2022-08-21T05:43:18;1.37;;;1.27;;
16115;SDS011;8162;47.104;15.432;2022-08-21T05:45:44;2.10;;;1.40;;
16115;SDS011;8162;47.104;15.432;2022-08-21T05:48:11;1.43;;;1.10;;
16115;SDS011;8162;47.104;15.432;2022-08-21T05:50:45;1.30;;;1.20;;
16115;SDS011;8162;47.104;15.432;2022-08-21T05:53:12;1.07;;;0.97;;
16115;SDS011;8162;47.104;15.432;2022-08-21T05:55:39;1.40;;;1.30;;
16115;SDS011;8162;47.104;15.432;2022-08-21T05:58:06;1.70;;;1.50;;
16115;SDS011;8162;47.104;15.432;2022-08-21T06:00:32;1.50;;;1.40;;
16115;SDS011;8162;47.104;15.432;2022-08-21T06:02:58;1.20;;;1.10;;
16115;SDS011;8162;47.104;15.432;2022-08-21T06:05:24;3.23;;;1.57;;
16115;SDS011;8162;47.104;15.432;2022-08-21T06:07:50;1.40;;;1.30;;
16115;SDS011;8162;47.104;15.432;2022-08-21T06:10:16;1.50;;;1.27;;
16115;SDS011;8162;47.104;15.432;2022-08-21T06:12:42;1.20;;;1.10;;
16115;SDS011;8162;47.104;15.432;2022-08-21T06:15:08;1.20;;;1.10;;
16115;SDS011;8162;47.104;15.432;2022-08-21T06:17:34;1.90;;;1.17;;
16115;SDS011;8162;47.104;15.432;2022-08-21T06:19:59;1.63;;;1.37;;
16115;SDS011;8162;47.104;15.432;2022-08-21T06:22:25;1.50;;;1.40;;
16115;SDS011;8162;47.104;15.432;2022-08-21T06:24:51;1.20;;;0.97;;
16115;SDS011;8162;47.104;15.432;2022-08-21T06:27:16;1.67;;;1.57;;
16115;SDS011;8162;47.104;15.432;2022-08-21T06:29:43;1.50;;;1.40;;
16115;SDS011;8162;47.104;15.432;2022-08-21T06:32:12;1.67;;;1.57;;
16115;SDS011;8162;47.104;15.432;2022-08-21T06:34:39;1.50;;;1.40;;
16115;SDS011;8162;47.104;15.432;2022-08-21T06:37:05;1.13;;;1.03;;
16115;SDS011;8162;47.104;15.432;2022-08-21T06:39:31;2.17;;;1.10;;
16115;SDS011;8162;47.104;15.432;2022-08-21T06:41:57;1.30;;;1.20;;
16115;SDS011;8162;47.104;15.432;2022-08-21T06:44:23;1.03;;;0.90;;
16115;SDS011;8162;47.104;15.432;2022-08-21T06:46:49;2.07;;;1.33;;
16115;SDS011;8162;47.104;15.432;2022-08-21T06:49:14;2.30;;;1.10;;
16115;SDS011;8162;47.104;15.432;2022-08-21T06:51:40;1.20;;;1.10;;
16115;SDS011;8162;47.104;15.432;2022-08-21T06:54:06;1.07;;;1.03;;
16115;SDS011;8162;47.104;15.432;2022-08-21T06:56:32;1.17;;;1.13;;
16115;SDS011;8162;47.104;15.432;2022-08-21T06:58:58;1.40;;;1.30;;
16115;SDS011;8162;47.104;15.432;2022-08-21T07:01:25;1.30;;;1.20;;
16115;SDS011;8162;47.104;15.432;2022-08-21T07:03:51;1.27;;;1.17;;
16115;SDS011;8162;47.104;15.432;2022-08-21T07:06:17;1.17;;;1.07;;
16115;SDS011;8162;47.104;15.432;2022-08-21T07:08:43;2.20;;;1.10;;
16115;SDS011;8162;47.104;15.432;2022-08-21T07:11:19;1.20;;;1.10;;
16115;SDS011;8162;47.104;15.432;2022-08-21T07:13:46;1.40;;;1.23;;
16115;SDS011;8162;47.104;15.432;2022-08-21T07:16:13;2.30;;;1.07;;
16115;SDS011;8162;47.104;15.432;2022-08-21T07:18:39;1.23;;;1.13;;
16115;SDS011;8162;47.104;15.432;2022-08-21T07:21:05;1.10;;;1.00;;
16115;SDS011;8162;47.104;15.432;2022-08-21T07:23:32;0.87;;;0.87;;
16115;SDS011;8162;47.104;15.432;2022-08-21T07:26:01;1.30;;;0.87;;
16115;SDS011;8162;47.104;15.432;2022-08-21T07:28:28;1.20;;;1.10;;
16115;SDS011;8162;47.104;15.432;2022-08-21T07:30:55;1.20;;;1.10;;
16115;SDS011;8162;47.104;15.432;2022-08-21T07:33:23;1.10;;;1.00;;
16115;SDS011;8162;47.104;15.432;2022-08-21T07:35:49;1.70;;;1.23;;
16115;SDS011;8162;47.104;15.432;2022-08-21T07:38:15;1.30;;;1.20;;
16115;SDS011;8162;47.104;15.432;2022-08-21T07:40:41;1.10;;;1.00;;
16115;SDS011;8162;47.104;15.432;2022-08-21T07:43:06;1.17;;;1.07;;
16115;SDS011;8162;47.104;15.432;2022-08-21T07:45:33;2.27;;;1.30;;
16115;SDS011;8162;47.104;15.432;2022-08-21T07:47:58;1.30;;;1.10;;
16115;SDS011;8162;47.104;15.432;2022-08-21T07:50:24;0.80;;;0.80;;
16115;SDS011;8162;47.104;15.432;2022-08-21T07:52:50;2.03;;;1.13;;
16115;SDS011;8162;47.104;15.432;2022-08-21T07:55:17;1.57;;;1.30;;
16115;SDS011;8162;47.104;15.432;2022-08-21T07:57:44;1.17;;;1.07;;
16115;SDS011;8162;47.104;15.432;2022-08-21T08:00:13;1.20;;;1.10;;
16115;SDS011;8162;47.104;15.432;2022-08-21T08:02:43;0.93;;;0.93;;
16115;SDS011;8162;47.104;15.432;2022-08-21T08:05:10;1.53;;;0.90;;
16115;SDS011;8162;47.104;15.432;2022-08-21T08:07:37;1.10;;;1.00;;
16115;SDS011;8162;47.104;15.432;2022-08-21T08:10:04;1.30;;;1.20;;
16115;SDS011;8162;47.104;15.432;2022-08-21T08:12:31;0.90;;;0.90;;
16115;SDS011;8162;47.104;15.432;2022-08-21T08:14:58;1.00;;;1.00;;
16115;SDS011;8162;47.104;15.432;2022-08-21T08:17:26;1.27;;;1.17;;
16115;SDS011;8162;47.104;15.432;2022-08-21T08:19:52;1.40;;;1.30;;
16115;SDS011;8162;47.104;15.432;2022-08-21T08:22:19;1.23;;;1.13;;
16115;SDS011;8162;47.104;15.432;2022-08-21T08:24:50;2.03;;;1.00;;
16115;SDS011;8162;47.104;15.432;2022-08-21T08:27:16;1.30;;;1.20;;
16115;SDS011;8162;47.104;15.432;2022-08-21T08:29:43;1.47;;;1.37;;
16115;SDS011;8162;47.104;15.432;2022-08-21T08:32:09;1.30;;;1.00;;
16115;SDS011;8162;47.104;15.432;2022-08-21T08:34:36;1.27;;;1.10;;
16115;SDS011;8162;47.104;15.432;2022-08-21T08:37:03;1.30;;;1.20;;
16115;SDS011;8162;47.104;15.432;2022-08-21T08:39:29;1.00;;;1.00;;
16115;SDS011;8162;47.104;15.432;2022-08-21T08:44:36;1.10;;;1.00;;
16115;SDS011;8162;47.104;15.432;2022-08-21T08:47:02;1.13;;;1.03;;
16115;SDS011;8162;47.104;15.432;2022-08-21T08:50:12;1.20;;;1.10;;
16115;SDS011;8162;47.104;15.432;2022-08-21T08:52:30;1.10;;;1.00;;
16115;SDS011;8162;47.104;15.432;2022-08-21T08:57:43;1.00;;;0.90;;
16115;SDS011;8162;47.104;15.432;2022-08-21T09:00:12;1.20;;;1.10;;
16115;SDS011;8162;47.104;15.432;2022-08-21T09:02:41;1.20;;;1.10;;
16115;SDS011;8162;47.104;15.432;2022-08-21T09:05:09;3.13;;;1.00;;
16115;SDS011;8162;47.104;15.432;2022-08-21T09:10:34;1.20;;;1.10;;
16115;SDS011;8162;47.104;15.432;2022-08-21T09:21:56;1.20;;;1.10;;
16115;SDS011;8162;47.104;15.432;2022-08-21T09:27:02;1.33;;;1.23;;
16115;SDS011;8162;47.104;15.432;2022-08-21T09:29:33;1.20;;;1.10;;
16115;SDS011;8162;47.104;15.432;2022-08-21T09:32:02;1.20;;;1.10;;
16115;SDS011;8162;47.104;15.432;2022-08-21T09:34:31;1.30;;;1.20;;
16115;SDS011;8162;47.104;15.432;2022-08-21T09:36:57;1.20;;;1.10;;
16115;SDS011;8162;47.104;15.432;2022-08-21T09:39:25;1.67;;;1.20;;
16115;SDS011;8162;47.104;15.432;2022-08-21T09:42:00;1.33;;;1.10;;
16115;SDS011;8162;47.104;15.432;2022-08-21T09:44:31;1.53;;;1.37;;
16115;SDS011;8162;47.104;15.432;2022-08-21T09:47:04;1.37;;;1.27;;
16115;SDS011;8162;47.104;15.432;2022-08-21T09:49:31;1.30;;;1.20;;
16115;SDS011;8162;47.104;15.432;2022-08-21T09:51:59;1.30;;;1.20;;
16115;SDS011;8162;47.104;15.432;2022-08-21T09:54:38;1.30;;;1.20;;
16115;SDS011;8162;47.104;15.432;2022-08-21T09:59:52;1.10;;;1.00;;
16115;SDS011;8162;47.104;15.432;2022-08-21T10:02:30;1.67;;;1.20;;
16115;SDS011;8162;47.104;15.432;2022-08-21T10:07:39;1.50;;;1.30;;
16115;SDS011;8162;47.104;15.432;2022-08-21T10:10:07;1.60;;;1.40;;
16115;SDS011;8162;47.104;15.432;2022-08-21T10:18:22;2.43;;;1.23;;
16115;SDS011;8162;47.104;15.432;2022-08-21T10:26:48;1.37;;;1.17;;
16115;SDS011;8162;47.104;15.432;2022-08-21T10:29:41;0.90;;;0.87;;
16115;SDS011;8162;47.104;15.432;2022-08-21T10:37:39;1.40;;;1.30;;
16115;SDS011;8162;47.104;15.432;2022-08-21T10:40:34;1.30;;;1.20;;
16115;SDS011;8162;47.104;15.432;2022-08-21T10:46:09;1.47;;;1.30;;
16115;SDS011;8162;47.104;15.432;2022-08-21T10:49:04;1.20;;;1.10;;
16115;SDS011;8162;47.104;15.432;2022-08-21T10:51:35;1.03;;;1.00;;
16115;SDS011;8162;47.104;15.432;2022-08-21T10:56:40;1.40;;;1.27;;
16115;SDS011;8162;47.104;15.432;2022-08-21T10:59:25;1.50;;;1.10;;
16115;SDS011;8162;47.104;15.432;2022-08-21T11:02:00;1.20;;;1.10;;
16115;SDS011;8162;47.104;15.432;2022-08-21T11:10:23;0.93;;;0.93;;
16115;SDS011;8162;47.104;15.432;2022-08-21T11:12:56;0.90;;;0.90;;
16115;SDS011;8162;47.104;15.432;2022-08-21T11:18:04;1.33;;;1.23;;
16115;SDS011;8162;47.104;15.432;2022-08-21T11:20:49;1.37;;;0.97;;
16115;SDS011;8162;47.104;15.432;2022-08-21T11:23:31;1.03;;;0.93;;
16115;SDS011;8162;47.104;15.432;2022-08-21T11:29:01;0.90;;;0.70;;
16115;SDS011;8162;47.104;15.432;2022-08-21T11:31:42;0.90;;;0.70;;
16115;SDS011;8162;47.104;15.432;2022-08-21T11:37:11;0.80;;;0.80;;
16115;SDS011;8162;47.104;15.432;2022-08-21T11:42:38;0.73;;;0.70;;
16115;SDS011;8162;47.104;15.432;2022-08-21T11:50:49;0.43;;;0.43;;
16115;SDS011;8162;47.104;15.432;2022-08-21T11:53:23;0.47;;;0.47;;
16115;SDS011;8162;47.104;15.432;2022-08-21T11:58:41;1.37;;;0.70;;
16115;SDS011;8162;47.104;15.432;2022-08-21T12:01:54;0.50;;;0.40;;
16115;SDS011;8162;47.104;15.432;2022-08-21T12:04:26;0.50;;;0.50;;
16115;SDS011;8162;47.104;15.432;2022-08-21T12:06:55;0.50;;;0.50;;
16115;SDS011;8162;47.104;15.432;2022-08-21T12:11:59;0.50;;;0.50;;
16115;SDS011;8162;47.104;15.432;2022-08-21T12:14:46;1.47;;;0.40;;
16115;SDS011;8162;47.104;15.432;2022-08-21T12:17:56;0.50;;;0.50;;
16115;SDS011;8162;47.104;15.432;2022-08-21T12:20:18;0.40;;;0.40;;
16115;SDS011;8162;47.104;15.432;2022-08-21T12:25:41;0.90;;;0.60;;
16115;SDS011;8162;47.104;15.432;2022-08-21T12:28:13;0.60;;;0.60;;
16115;SDS011;8162;47.104;15.432;2022-08-21T12:30:46;1.07;;;0.77;;
16115;SDS011;8162;47.104;15.432;2022-08-21T12:36:10;1.10;;;0.77;;
16115;SDS011;8162;47.104;15.432;2022-08-21T12:41:11;0.40;;;0.40;;
16115;SDS011;8162;47.104;15.432;2022-08-21T12:43:43;1.00;;;0.60;;
16115;SDS011;8162;47.104;15.432;2022-08-21T12:46:21;0.40;;;0.40;;
16115;SDS011;8162;47.104;15.432;2022-08-21T12:49:12;0.50;;;0.40;;
16115;SDS011;8162;47.104;15.432;2022-08-21T12:51:50;0.70;;;0.40;;
16115;SDS011;8162;47.104;15.432;2022-08-21T12:54:27;0.30;;;0.30;;
16115;SDS011;8162;47.104;15.432;2022-08-21T12:56:56;0.50;;;0.50;;
16115;SDS011;8162;47.104;15.432;2022-08-21T12:59:23;0.47;;;0.47;;
16115;SDS011;8162;47.104;15.432;2022-08-21T13:01:49;0.90;;;0.50;;
16115;SDS011;8162;47.104;15.432;2022-08-21T13:04:17;0.63;;;0.43;;
16115;SDS011;8162;47.104;15.432;2022-08-21T13:06:48;0.47;;;0.47;;
16115;SDS011;8162;47.104;15.432;2022-08-21T13:09:16;0.30;;;0.30;;
16115;SDS011;8162;47.104;15.432;2022-08-21T13:11:47;0.40;;;0.40;;
16115;SDS011;8162;47.104;15.432;2022-08-21T13:14:17;0.40;;;0.40;;
16115;SDS011;8162;47.104;15.432;2022-08-21T13:16:54;0.77;;;0.40;;
16115;SDS011;8162;47.104;15.432;2022-08-21T13:19:21;0.93;;;0.30;;
16115;SDS011;8162;47.104;15.432;2022-08-21T13:21:48;0.37;;;0.30;;
16115;SDS011;8162;47.104;15.432;2022-08-21T13:24:15;0.30;;;0.30;;
16115;SDS011;8162;47.104;15.432;2022-08-21T13:26:41;0.30;;;0.30;;
16115;SDS011;8162;47.104;15.432;2022-08-21T13:29:08;0.83;;;0.30;;
16115;SDS011;8162;47.104;15.432;2022-08-21T13:31:36;1.70;;;0.30;;
16115;SDS011;8162;47.104;15.432;2022-08-21T13:34:04;0.37;;;0.30;;
16115;SDS011;8162;47.104;15.432;2022-08-21T13:36:34;0.30;;;0.30;;
16115;SDS011;8162;47.104;15.432;2022-08-21T13:39:03;0.60;;;0.60;;
16115;SDS011;8162;47.104;15.432;2022-08-21T13:41:34;1.60;;;0.50;;
16115;SDS011;8162;47.104;15.432;2022-08-21T13:44:04;0.50;;;0.50;;
16115;SDS011;8162;47.104;15.432;2022-08-21T13:46:32;0.73;;;0.47;;
16115;SDS011;8162;47.104;15.432;2022-08-21T13:49:00;0.33;;;0.33;;
16115;SDS011;8162;47.104;15.432;2022-08-21T13:51:28;0.43;;;0.40;;
16115;SDS011;8162;47.104;15.432;2022-08-21T13:53:55;0.40;;;0.40;;
16115;SDS011;8162;47.104;15.432;2022-08-21T13:56:22;0.40;;;0.40;;
16115;SDS011;8162;47.104;15.432;2022-08-21T13:58:51;0.30;;;0.30;;
16115;SDS011;8162;47.104;15.432;2022-08-21T14:03:45;1.10;;;0.50;;
16115;SDS011;8162;47.104;15.432;2022-08-21T14:06:14;0.40;;;0.40;;
16115;SDS011;8162;47.104;15.432;2022-08-21T14:08:47;0.33;;;0.30;;
16115;SDS011;8162;47.104;15.432;2022-08-21T14:11:16;2.00;;;0.50;;
16115;SDS011;8162;47.104;15.432;2022-08-21T14:13:44;0.70;;;0.60;;
16115;SDS011;8162;47.104;15.432;2022-08-21T14:16:17;0.50;;;0.50;;
16115;SDS011;8162;47.104;15.432;2022-08-21T14:26:29;0.57;;;0.57;;
16115;SDS011;8162;47.104;15.432;2022-08-21T14:28:57;0.50;;;0.50;;
16115;SDS011;8162;47.104;15.432;2022-08-21T14:31:27;1.03;;;0.60;;
16115;SDS011;8162;47.104;15.432;2022-08-21T14:33:57;0.83;;;0.83;;
16115;SDS011;8162;47.104;15.432;2022-08-21T14:36:23;0.50;;;0.50;;
16115;SDS011;8162;47.104;15.432;2022-08-21T14:38:49;0.57;;;0.53;;
16115;SDS011;8162;47.104;15.432;2022-08-21T14:41:19;1.80;;;0.80;;
16115;SDS011;8162;47.104;15.432;2022-08-21T14:43:47;0.70;;;0.70;;
16115;SDS011;8162;47.104;15.432;2022-08-21T14:46:15;0.70;;;0.70;;
16115;SDS011;8162;47.104;15.432;2022-08-21T14:48:46;1.90;;;0.83;;
16115;SDS011;8162;47.104;15.432;2022-08-21T14:51:12;0.87;;;0.87;;
16115;SDS011;8162;47.104;15.432;2022-08-21T14:53:38;0.80;;;0.80;;
16115;SDS011;8162;47.104;15.432;2022-08-21T14:56:04;0.97;;;0.97;;
16115;SDS011;8162;47.104;15.432;2022-08-21T14:58:30;2.00;;;0.87;;
16115;SDS011;8162;47.104;15.432;2022-08-21T15:00:57;0.90;;;0.83;;
16115;SDS011;8162;47.104;15.432;2022-08-21T15:03:23;1.10;;;1.00;;
16115;SDS011;8162;47.104;15.432;2022-08-21T15:05:50;0.83;;;0.83;;
16115;SDS011;8162;47.104;15.432;2022-08-21T15:08:16;1.20;;;1.10;;
16115;SDS011;8162;47.104;15.432;2022-08-21T15:10:42;1.30;;;1.20;;
16115;SDS011;8162;47.104;15.432;2022-08-21T15:13:08;1.20;;;1.10;;
16115;SDS011;8162;47.104;15.432;2022-08-21T15:15:42;1.30;;;1.20;;
16115;SDS011;8162;47.104;15.432;2022-08-21T15:18:09;1.60;;;1.50;;
16115;SDS011;8162;47.104;15.432;2022-08-21T15:20:35;1.30;;;1.20;;
16115;SDS011;8162;47.104;15.432;2022-08-21T15:23:02;1.57;;;1.10;;
16115;SDS011;8162;47.104;15.432;2022-08-21T15:25:29;2.13;;;1.20;;
16115;SDS011;8162;47.104;15.432;2022-08-21T15:27:55;1.17;;;1.07;;
16115;SDS011;8162;47.104;15.432;2022-08-21T15:30:21;1.57;;;1.47;;
16115;SDS011;8162;47.104;15.432;2022-08-21T15:32:47;1.87;;;1.60;;
16115;SDS011;8162;47.104;15.432;2022-08-21T15:35:13;1.60;;;1.27;;
16115;SDS011;8162;47.104;15.432;2022-08-21T15:37:39;1.60;;;1.50;;
16115;SDS011;8162;47.104;15.432;2022-08-21T15:40:05;1.33;;;1.23;;
16115;SDS011;8162;47.104;15.432;2022-08-21T15:42:32;1.60;;;1.50;;
16115;SDS011;8162;47.104;15.432;2022-08-21T15:44:58;2.50;;;1.63;;
16115;SDS011;8162;47.104;15.432;2022-08-21T15:47:29;1.60;;;1.50;;
16115;SDS011;8162;47.104;15.432;2022-08-21T15:49:56;2.40;;;1.20;;
16115;SDS011;8162;47.104;15.432;2022-08-21T15:52:22;1.60;;;1.50;;
16115;SDS011;8162;47.104;15.432;2022-08-21T15:54:48;1.50;;;1.40;;
16115;SDS011;8162;47.104;15.432;2022-08-21T15:57:15;1.60;;;1.50;;
16115;SDS011;8162;47.104;15.432;2022-08-21T15:59:44;1.97;;;1.40;;
16115;SDS011;8162;47.104;15.432;2022-08-21T16:02:17;2.47;;;1.40;;
16115;SDS011;8162;47.104;15.432;2022-08-21T16:04:47;1.70;;;1.40;;
16115;SDS011;8162;47.104;15.432;2022-08-21T16:07:13;1.50;;;1.40;;
16115;SDS011;8162;47.104;15.432;2022-08-21T16:09:40;1.57;;;1.47;;
16115;SDS011;8162;47.104;15.432;2022-08-21T16:12:06;1.47;;;1.30;;
16115;SDS011;8162;47.104;15.432;2022-08-21T16:14:34;1.90;;;1.70;;
16115;SDS011;8162;47.104;15.432;2022-08-21T16:17:07;3.10;;;1.30;;
16115;SDS011;8162;47.104;15.432;2022-08-21T16:19:33;1.57;;;1.30;;
16115;SDS011;8162;47.104;15.432;2022-08-21T16:22:01;1.33;;;1.23;;
16115;SDS011;8162;47.104;15.432;2022-08-21T16:24:27;1.97;;;1.10;;
16115;SDS011;8162;47.104;15.432;2022-08-21T16:26:52;1.73;;;1.30;;
16115;SDS011;8162;47.104;15.432;2022-08-21T16:29:18;2.07;;;1.50;;
16115;SDS011;8162;47.104;15.432;2022-08-21T16:31:46;2.07;;;1.87;;
16115;SDS011;8162;47.104;15.432;2022-08-21T16:34:15;1.60;;;1.50;;